Time;durP1;ratioP1;P1;durP2;ratioP2;P2;SDS_P1;SDS_P2;PMS_P1;PMS_P2;Temp;Humidity;BMP_temperature;BMP_pressure;BME280_temperature;BME280_humidity;BME280_pressure;Samples;Min_cycle;Max_cycle;Signal;HPM_P1;HPM_P2
2024/01/19 00:00:26;;;;;;;8.80;7.35;;;;;;;;;;5041323;27;20219;-71
2024/01/19 00:02:53;;;;;;;8.45;6.50;;;-1.20;99.90;;;;;;5038068;28;20229;-71
2024/01/19 00:05:20;;;;;;;10.07;6.70;;;-1.40;99.90;;;;;;5033964;28;21331;-70
2024/01/19 00:07:47;;;;;;;7.30;4.80;;;;;;;;;;5038595;27;20207;-71
2024/01/19 00:10:15;;;;;;;4.60;4.28;;;-1.20;99.90;;;;;;5038554;27;20363;-71
2024/01/19 00:12:42;;;;;;;6.18;5.25;;;;;;;;;;5038821;27;20221;-71
2024/01/19 00:15:10;;;;;;;5.38;3.08;;;-2.50;99.90;;;;;;5036672;27;20687;-71
2024/01/19 00:17:37;;;;;;;8.52;6.93;;;-1.10;99.90;;;;;;5032607;27;20209;-71
2024/01/19 00:20:06;;;;;;;10.80;6.55;;;;;;;;;;5030117;28;20582;-71
2024/01/19 00:22:32;;;;;;;5.60;5.05;;;-1.20;99.90;;;;;;5033132;27;20211;-71
2024/01/19 00:24:59;;;;;;;13.52;6.03;;;-0.50;99.90;;;;;;5037316;27;20204;-71
2024/01/19 00:27:29;;;;;;;12.57;6.68;;;-1.30;99.90;;;;;;5031402;27;20205;-71
2024/01/19 00:29:56;;;;;;;7.90;4.88;;;-1.20;99.90;;;;;;5039338;27;20201;-71
2024/01/19 00:32:23;;;;;;;6.53;5.38;;;-1.30;99.90;;;;;;5037768;27;20213;-71
2024/01/19 00:34:50;;;;;;;8.63;5.68;;;;;;;;;;5034379;27;20292;-71
2024/01/19 00:37:17;;;;;;;6.90;6.15;;;-1.30;99.90;;;;;;5034382;27;20639;-71
2024/01/19 00:39:44;;;;;;;8.02;4.60;;;;;;;;;;5041740;27;20208;-71
2024/01/19 00:42:11;;;;;;;8.75;8.05;;;;;;;;;;5033522;27;20312;-71
2024/01/19 00:44:39;;;;;;;6.20;4.82;;;-1.40;99.90;;;;;;5036159;27;20999;-71
2024/01/19 00:47:06;;;;;;;10.60;7.45;;;;;;;;;;5032186;27;20215;-71
2024/01/19 00:49:33;;;;;;;13.30;7.25;;;-1.30;99.90;;;;;;5035750;28;20670;-71
2024/01/19 00:52:00;;;;;;;5.47;4.93;;;;;;;;;;5035143;27;20594;-71
2024/01/19 00:54:28;;;;;;;9.30;5.38;;;;;;;;;;5040595;28;20633;-71
2024/01/19 00:56:55;;;;;;;13.15;7.10;;;-1.20;99.90;;;;;;5036283;27;20287;-71
2024/01/19 00:59:22;;;;;;;8.82;6.03;;;;;;;;;;5040892;27;20206;-71
2024/01/19 01:01:50;;;;;;;10.15;5.80;;;-1.60;99.90;;;;;;5038910;27;20621;-71
2024/01/19 01:04:17;;;;;;;5.43;4.82;;;-1.30;99.90;;;;;;5038463;27;20197;-71
2024/01/19 01:06:44;;;;;;;24.73;6.95;;;-1.30;99.90;;;;;;5036373;27;20200;-71
2024/01/19 01:09:11;;;;;;;11.13;7.93;;;-1.30;99.90;;;;;;5041471;28;20201;-71
2024/01/19 01:11:38;;;;;;;7.07;4.95;;;;;;;;;;5037573;27;20208;-71
2024/01/19 01:14:05;;;;;;;7.40;6.63;;;-1.20;99.90;;;;;;5033029;27;20225;-71
2024/01/19 01:16:33;;;;;;;8.23;6.32;;;-1.20;99.90;;;;;;5035778;27;20207;-71
2024/01/19 01:19:01;;;;;;;7.63;4.82;;;-1.20;99.90;;;;;;5036174;27;20258;-71
2024/01/19 01:21:28;;;;;;;6.15;5.50;;;;;;;;;;5037275;27;20216;-71
2024/01/19 01:23:55;;;;;;;6.47;5.88;;;;;;;;;;5041680;27;20211;-71
2024/01/19 01:26:22;;;;;;;7.32;5.13;;;-1.20;99.90;;;;;;5040872;27;20204;-71
2024/01/19 01:28:49;;;;;;;6.40;4.45;;;;;;;;;;5038233;27;20214;-71
2024/01/19 01:31:16;;;;;;;11.05;4.15;;;;;;;;;;5037395;27;20208;-71
2024/01/19 01:33:43;;;;;;;5.32;4.90;;;-2.50;99.90;;;;;;5040513;27;20225;-71
2024/01/19 01:36:11;;;;;;;6.80;6.20;;;-1.20;99.90;;;;;;5035406;27;20205;-71
2024/01/19 01:38:38;;;;;;;9.63;5.07;;;;;;;;;;5039726;28;20219;-70
2024/01/19 01:41:06;;;;;;;19.08;8.65;;;;;;;;;;5034534;27;20205;-71
2024/01/19 01:43:32;;;;;;;5.93;5.47;;;-1.20;99.90;;;;;;5040997;28;20200;-71
2024/01/19 01:45:59;;;;;;;10.57;5.28;;;;;;;;;;5033092;27;20511;-71
2024/01/19 01:48:27;;;;;;;15.05;6.53;;;-1.40;99.90;;;;;;5038635;27;20216;-71
2024/01/19 01:50:55;;;;;;;8.02;6.25;;;-1.30;99.90;;;;;;5035308;28;20212;-71
2024/01/19 01:53:24;;;;;;;5.45;4.63;;;-1.30;99.90;;;;;;5038140;27;20680;-71
2024/01/19 01:55:52;;;;;;;10.63;7.38;;;-1.30;99.90;;;;;;5036419;27;20201;-71
2024/01/19 01:58:19;;;;;;;7.13;6.40;;;;;;;;;;5040334;27;20288;-70
2024/01/19 02:00:47;;;;;;;5.90;5.20;;;-1.40;99.90;;;;;;5034580;27;20874;-71
2024/01/19 02:03:14;;;;;;;8.05;4.70;;;;;;;;;;5035680;27;20291;-71
2024/01/19 02:05:41;;;;;;;8.55;6.10;;;-1.40;99.90;;;;;;5033662;27;20204;-71
2024/01/19 02:08:08;;;;;;;9.60;4.25;;;;;;;;;;5032472;27;20209;-71
2024/01/19 02:10:37;;;;;;;3.92;3.50;;;-1.40;99.90;;;;;;5043433;27;20207;-71
2024/01/19 02:13:04;;;;;;;7.38;6.68;;;-1.30;99.90;;;;;;5037220;27;20230;-71
2024/01/19 02:15:34;;;;;;;5.50;3.85;;;;;;;;;;5035060;27;20217;-71
2024/01/19 02:18:02;;;;;;;8.13;5.18;;;-1.30;99.90;;;;;;5042011;27;20208;-71
2024/01/19 02:20:30;;;;;;;5.05;4.53;;;-1.20;99.90;;;;;;5035266;27;20208;-71
2024/01/19 02:23:00;;;;;;;10.35;6.20;;;-1.20;99.90;;;;;;5033365;27;20271;-71
2024/01/19 02:25:28;;;;;;;7.75;5.63;;;-1.30;99.90;;;;;;5038022;28;20256;-71
2024/01/19 02:27:56;;;;;;;6.88;6.00;;;-1.30;99.90;;;;;;5036305;27;20674;-71
2024/01/19 02:30:24;;;;;;;6.15;5.50;;;-1.30;99.90;;;;;;5039521;27;20207;-71
2024/01/19 02:32:51;;;;;;;7.10;6.07;;;-1.30;99.90;;;;;;5035780;27;20207;-71
2024/01/19 02:35:19;;;;;;;5.93;5.30;;;-1.40;99.90;;;;;;5031396;27;20205;-71
2024/01/19 02:37:47;;;;;;;8.90;6.55;;;;;;;;;;5029691;28;20207;-71
2024/01/19 02:40:15;;;;;;;6.30;5.70;;;;;;;;;;5034506;28;20197;-71
2024/01/19 02:42:44;;;;;;;7.82;6.20;;;-0.80;99.90;;;;;;5040740;27;20224;-71
2024/01/19 02:45:12;;;;;;;7.60;6.82;;;-0.70;99.90;;;;;;5037849;28;20240;-71
2024/01/19 02:47:40;;;;;;;3.97;3.67;;;-1.70;99.90;;;;;;5036207;27;20223;-71
2024/01/19 02:50:08;;;;;;;8.63;5.07;;;-1.40;99.90;;;;;;5042059;27;20207;-71
2024/01/19 02:52:36;;;;;;;9.30;5.63;;;;;;;;;;5040835;28;20227;-71
2024/01/19 02:55:03;;;;;;;9.32;3.65;;;;;;;;;;5039915;27;20201;-71
2024/01/19 02:57:32;;;;;;;6.95;6.25;;;;;;;;;;5041939;27;20741;-71
2024/01/19 03:00:00;;;;;;;7.45;5.88;;;-1.40;99.90;;;;;;5042495;27;20211;-71
2024/01/19 03:02:27;;;;;;;5.93;4.63;;;;;;;;;;5030889;27;20207;-71
2024/01/19 03:04:54;;;;;;;4.20;3.80;;;-1.20;99.90;;;;;;5035584;27;20203;-71
2024/01/19 03:07:22;;;;;;;8.50;7.63;;;;;;;;;;5035109;27;20218;-71
2024/01/19 03:09:49;;;;;;;9.43;4.22;;;;;;;;;;5042756;27;20200;-71
2024/01/19 03:12:19;;;;;;;5.30;4.78;;;;;;;;;;5042854;27;20205;-71
2024/01/19 03:14:46;;;;;;;5.07;4.57;;;-1.40;99.90;;;;;;5041323;27;20204;-71
2024/01/19 03:17:16;;;;;;;8.90;6.05;;;-1.50;99.90;;;;;;5033776;27;20276;-71
2024/01/19 03:19:44;;;;;;;6.32;5.57;;;-1.70;99.90;;;;;;5028197;27;20304;-71
2024/01/19 03:22:12;;;;;;;10.07;4.53;;;-1.60;99.90;;;;;;5028699;27;20611;-71
2024/01/19 03:24:40;;;;;;;4.63;3.92;;;;;;;;;;5033293;28;20199;-71
2024/01/19 03:27:08;;;;;;;9.15;5.13;;;;;;;;;;5033894;27;20242;-71
2024/01/19 03:29:36;;;;;;;4.45;4.05;;;;;;;;;;5035440;27;20641;-71
2024/01/19 03:32:04;;;;;;;5.63;5.18;;;-1.80;99.90;;;;;;5049829;27;20207;-71
2024/01/19 03:34:33;;;;;;;9.70;5.85;;;;;;;;;;5047234;27;20226;-71
2024/01/19 03:37:03;;;;;;;12.68;4.25;;;;;;;;;;5048340;27;20294;-71
2024/01/19 03:39:31;;;;;;;4.57;3.92;;;;;;;;;;5048800;27;20753;-71
2024/01/19 03:42:00;;;;;;;7.18;5.70;;;;;;;;;;5048761;27;20212;-71
2024/01/19 03:44:28;;;;;;;8.57;4.00;;;;;;;;;;5058267;27;20204;-71
2024/01/19 03:46:56;;;;;;;5.35;4.80;;;;;;;;;;5036536;27;20216;-71
2024/01/19 03:49:24;;;;;;;10.90;4.55;;;;;;;;;;5039474;27;20201;-71
2024/01/19 03:52:03;;;;;;;6.53;5.90;;;-1.90;99.90;;;;;;5036547;27;20576;-71
2024/01/19 03:54:30;;;;;;;7.15;4.85;;;-1.80;99.90;;;;;;5047212;27;20223;-71
2024/01/19 03:57:00;;;;;;;3.63;3.28;;;-2.10;99.90;;;;;;5055471;28;20203;-71
2024/01/19 03:59:27;;;;;;;6.15;5.07;;;;;;;;;;5060483;28;20210;-71
2024/01/19 04:01:55;;;;;;;3.90;3.60;;;-1.70;99.90;;;;;;5048587;28;20216;-71
2024/01/19 04:04:22;;;;;;;7.00;6.13;;;;;;;;;;5055825;27;20661;-71
2024/01/19 04:06:49;;;;;;;8.30;6.35;;;;;;;;;;5052542;28;20549;-71
2024/01/19 04:09:17;;;;;;;37.28;6.45;;;-1.80;99.90;;;;;;5049158;28;20214;-71
2024/01/19 04:11:44;;;;;;;9.20;8.30;;;;;;;;;;5047373;28;20201;-71
2024/01/19 04:14:12;;;;;;;10.07;5.53;;;-1.80;99.90;;;;;;5058661;27;20276;-71
2024/01/19 04:16:39;;;;;;;5.72;3.78;;;;;;;;;;5048896;28;20205;-71
2024/01/19 04:19:06;;;;;;;10.60;5.00;;;;;;;;;;5046964;28;20214;-71
2024/01/19 04:21:33;;;;;;;10.55;7.07;;;;;;;;;;5039367;28;20211;-71
2024/01/19 04:24:01;;;;;;;6.50;4.85;;;;;;;;;;5048615;27;20200;-71
2024/01/19 04:26:30;;;;;;;5.88;5.28;;;-1.90;99.90;;;;;;5040324;28;20277;-71
2024/01/19 04:28:57;;;;;;;5.43;4.63;;;-1.90;99.90;;;;;;5042161;28;20693;-71
2024/01/19 04:31:23;;;;;;;4.50;3.45;;;-1.50;99.90;;;;;;5036382;28;20253;-71
2024/01/19 04:33:51;;;;;;;9.70;5.53;;;;;;;;;;5039051;27;20332;-71
2024/01/19 04:36:18;;;;;;;16.33;4.82;;;;;;;;;;5048725;27;20208;-71
2024/01/19 04:38:49;;;;;;;5.93;3.95;;;;;;;;;;5040372;27;20645;-71
2024/01/19 04:41:16;;;;;;;12.55;6.60;;;;;;;;;;5038000;27;20193;-71
2024/01/19 04:43:44;;;;;;;4.78;4.38;;;-1.90;99.90;;;;;;5048226;28;20193;-71
2024/01/19 04:46:11;;;;;;;8.52;6.55;;;-1.90;99.90;;;;;;5049455;28;20561;-71
2024/01/19 04:48:38;;;;;;;5.50;5.00;;;;;;;;;;5048582;28;20219;-71
2024/01/19 04:51:06;;;;;;;7.32;6.72;;;-1.80;99.90;;;;;;5045118;28;20208;-71
2024/01/19 04:53:33;;;;;;;7.13;5.20;;;-1.70;99.90;;;;;;5055241;28;20666;-71
2024/01/19 04:56:00;;;;;;;7.55;6.85;;;-1.60;99.90;;;;;;5047887;27;20515;-71
2024/01/19 04:58:27;;;;;;;8.27;5.22;;;;;;;;;;5061467;28;20606;-71
2024/01/19 05:00:55;;;;;;;9.05;3.83;;;-1.80;99.90;;;;;;5051433;28;20681;-71
2024/01/19 05:03:22;;;;;;;3.42;3.08;;;;;;;;;;5054773;28;20566;-71
2024/01/19 05:05:49;;;;;;;5.60;2.70;;;;;;;;;;5050057;27;20233;-71
2024/01/19 05:08:16;;;;;;;13.40;6.10;;;;;;;;;;5059778;28;20564;-71
2024/01/19 05:10:43;;;;;;;6.85;5.03;;;;;;;;;;5040344;28;20202;-71
2024/01/19 05:13:10;;;;;;;6.20;4.32;;;;;;;;;;5056522;28;20211;-71
2024/01/19 05:15:38;;;;;;;6.90;4.82;;;-1.90;99.90;;;;;;5047653;27;20298;-71
2024/01/19 05:18:06;;;;;;;4.80;4.43;;;-1.90;99.90;;;;;;5051892;28;20228;-71
2024/01/19 05:20:33;;;;;;;7.63;6.32;;;;;;;;;;5046499;28;20207;-71
2024/01/19 05:23:00;;;;;;;6.50;5.15;;;;;;;;;;5045723;28;20646;-71
2024/01/19 05:25:27;;;;;;;2.30;2.20;;;;;;;;;;5050284;28;20212;-71
2024/01/19 05:27:55;;;;;;;6.28;3.83;;;;;;;;;;5041264;28;20219;-71
2024/01/19 05:30:22;;;;;;;6.68;5.40;;;;;;;;;;5037676;28;20209;-71
2024/01/19 05:32:49;;;;;;;8.25;4.40;;;;;;;;;;5035583;28;20427;-71
2024/01/19 05:35:17;;;;;;;6.78;6.07;;;-1.80;99.90;;;;;;5048175;28;20250;-71
2024/01/19 05:37:44;;;;;;;4.82;3.85;;;-1.80;99.90;;;;;;5032555;27;20196;-71
2024/01/19 05:40:11;;;;;;;7.28;5.50;;;-1.40;99.90;;;;;;5046229;28;20290;-71
2024/01/19 05:42:38;;;;;;;10.93;4.60;;;;;;;;;;5057338;28;20219;-71
2024/01/19 05:45:06;;;;;;;9.55;5.90;;;-1.60;99.90;;;;;;5053113;28;20307;-71
2024/01/19 05:47:33;;;;;;;6.72;5.03;;;;;;;;;;5055627;28;20230;-71
2024/01/19 05:50:00;;;;;;;5.28;4.43;;;;;;;;;;5041609;28;20216;-70
2024/01/19 05:52:28;;;;;;;4.88;3.67;;;-1.40;99.90;;;;;;5059106;28;20208;-69
2024/01/19 05:54:55;;;;;;;3.78;2.80;;;;;;;;;;5045836;28;20218;-71
2024/01/19 05:57:23;;;;;;;5.72;5.05;;;;;;;;;;5056103;27;20592;-70
2024/01/19 05:59:50;;;;;;;9.75;4.70;;;-1.50;99.90;;;;;;5047963;27;20212;-70
2024/01/19 06:02:17;;;;;;;4.90;4.38;;;;;;;;;;5053278;28;20286;-70
2024/01/19 06:04:44;;;;;;;7.45;6.03;;;;;;;;;;5054737;28;20539;-71
2024/01/19 06:07:11;;;;;;;8.02;5.35;;;-1.70;99.90;;;;;;5053518;28;20204;-71
2024/01/19 06:09:39;;;;;;;3.90;3.55;;;-1.60;99.90;;;;;;5042488;27;20209;-72
2024/01/19 06:12:06;;;;;;;13.35;5.32;;;-3.30;99.90;;;;;;5047103;28;20207;-73
2024/01/19 06:14:33;;;;;;;5.95;5.40;;;;;;;;;;5050354;27;20382;-73
2024/01/19 06:17:01;;;;;;;4.57;3.45;;;;;;;;;;5052699;28;20201;-74
2024/01/19 06:19:28;;;;;;;10.27;5.50;;;;;;;;;;5048468;28;20942;-73
2024/01/19 06:21:55;;;;;;;9.07;6.32;;;;;;;;;;5032582;28;20209;-71
2024/01/19 06:24:22;;;;;;;5.10;4.18;;;;;;;;;;5034957;27;20207;-73
2024/01/19 06:26:50;;;;;;;4.95;4.63;;;-1.70;99.90;;;;;;5045030;28;20205;-71
2024/01/19 06:29:18;;;;;;;4.30;3.90;;;;;;;;;;5049936;27;20301;-71
2024/01/19 06:31:45;;;;;;;8.25;4.57;;;;;;;;;;5038462;27;20200;-71
2024/01/19 06:34:12;;;;;;;13.63;5.72;;;;;;;;;;5038333;28;20269;-71
2024/01/19 06:36:39;;;;;;;4.45;3.85;;;;;;;;;;5041895;27;20666;-71
2024/01/19 06:39:07;;;;;;;6.50;3.95;;;;;;;;;;5037309;27;20206;-71
2024/01/19 06:41:34;;;;;;;5.85;4.32;;;;;;;;;;5041340;27;20759;-71
2024/01/19 06:44:05;;;;;;;8.05;6.15;;;-1.60;99.90;;;;;;5048444;28;20200;-71
2024/01/19 06:46:32;;;;;;;3.88;3.50;;;;;;;;;;5042989;28;20209;-71
2024/01/19 06:48:59;;;;;;;7.13;4.80;;;;;;;;;;5053621;28;20219;-71
2024/01/19 06:51:28;;;;;;;6.22;5.63;;;;;;;;;;5047262;28;20215;-71
2024/01/19 06:53:55;;;;;;;12.68;7.60;;;;;;;;;;5041301;27;20763;-71
2024/01/19 06:56:22;;;;;;;10.27;5.72;;;;;;;;;;5037833;28;20281;-71
2024/01/19 06:58:49;;;;;;;8.95;7.47;;;;;;;;;;5042838;27;20905;-74
2024/01/19 07:01:18;;;;;;;6.75;5.38;;;;;;;;;;5044775;28;20207;-70
2024/01/19 07:03:45;;;;;;;6.10;5.57;;;;;;;;;;5050526;27;20268;-73
2024/01/19 07:06:12;;;;;;;5.43;4.43;;;;;;;;;;5047806;28;20291;-72
2024/01/19 07:08:40;;;;;;;19.50;6.75;;;;;;;;;;5050605;27;20209;-72
2024/01/19 07:11:07;;;;;;;3.25;3.05;;;;;;;;;;5051476;27;20592;-73
2024/01/19 07:13:34;;;;;;;3.92;3.05;;;;;;;;;;5046565;28;20291;-73
2024/01/19 07:16:01;;;;;;;5.13;4.60;;;;;;;;;;5038742;28;20668;-72
2024/01/19 07:18:29;;;;;;;7.28;5.65;;;-1.70;99.90;;;;;;5044249;27;20224;-72
2024/01/19 07:20:58;;;;;;;6.32;4.43;;;-1.60;99.90;;;;;;5035971;28;20214;-72
2024/01/19 07:23:25;;;;;;;6.57;4.57;;;-1.60;99.90;;;;;;5039364;27;20203;-72
2024/01/19 07:25:52;;;;;;;9.15;6.40;;;-1.60;99.90;;;;;;5036538;28;20536;-72
2024/01/19 07:28:19;;;;;;;10.18;7.68;;;-1.50;99.90;;;;;;5055641;27;20198;-72
2024/01/19 07:30:46;;;;;;;9.30;6.22;;;-1.50;99.90;;;;;;5042793;27;20295;-72
2024/01/19 07:33:12;;;;;;;8.25;5.68;;;-1.50;99.90;;;;;;5038577;28;20220;-72
2024/01/19 07:35:41;;;;;;;8.05;6.55;;;-1.60;99.90;;;;;;5050122;27;20228;-72
2024/01/19 07:38:07;;;;;;;8.60;6.55;;;-1.60;99.90;;;;;;5040821;28;20205;-72
2024/01/19 07:40:34;;;;;;;9.38;4.30;;;-1.70;99.90;;;;;;5048754;28;20295;-72
2024/01/19 07:43:01;;;;;;;7.25;6.10;;;-1.80;99.90;;;;;;5050108;27;20208;-72
2024/01/19 07:45:28;;;;;;;8.35;6.60;;;-1.80;99.90;;;;;;5051370;27;20201;-72
2024/01/19 07:47:54;;;;;;;5.10;4.15;;;-1.90;99.90;;;;;;5052534;28;20211;-72
2024/01/19 07:50:22;;;;;;;10.38;8.25;;;-2.00;99.90;;;;;;5057685;27;20208;-72
2024/01/19 07:52:50;;;;;;;5.75;4.40;;;-1.90;99.90;;;;;;5053311;27;20201;-72
2024/01/19 07:55:17;;;;;;;9.77;6.93;;;-1.80;99.90;;;;;;5054130;28;20220;-72
2024/01/19 07:57:43;;;;;;;5.25;4.85;;;-1.80;99.90;;;;;;5044329;28;20287;-72
2024/01/19 08:00:11;;;;;;;5.80;5.20;;;-1.80;99.90;;;;;;5054348;28;20606;-72
2024/01/19 08:02:40;;;;;;;6.85;5.93;;;-1.70;99.90;;;;;;5047128;27;20296;-72
2024/01/19 08:05:07;;;;;;;7.30;5.00;;;-1.80;99.90;;;;;;5035990;28;20658;-72
2024/01/19 08:07:33;;;;;;;10.90;5.88;;;-1.70;99.90;;;;;;5038136;28;20677;-72
2024/01/19 08:10:02;;;;;;;9.00;6.70;;;-1.70;99.90;;;;;;5048392;28;20304;-72
2024/01/19 08:12:29;;;;;;;9.73;5.88;;;-1.60;99.90;;;;;;5044577;28;20249;-72
2024/01/19 08:14:57;;;;;;;11.13;6.75;;;-1.60;99.90;;;;;;5054419;28;20567;-72
2024/01/19 08:17:24;;;;;;;12.80;5.75;;;-1.50;99.90;;;;;;5055347;27;20323;-72
2024/01/19 08:19:51;;;;;;;11.57;6.10;;;-1.50;99.90;;;;;;5046080;28;20303;-72
2024/01/19 08:22:18;;;;;;;6.53;4.95;;;-1.60;99.90;;;;;;5047775;28;20280;-72
2024/01/19 08:24:44;;;;;;;7.47;6.82;;;-1.50;99.90;;;;;;5033484;28;20288;-72
2024/01/19 08:27:13;;;;;;;10.88;6.15;;;-1.50;99.90;;;;;;5035290;28;20208;-73
2024/01/19 08:29:39;;;;;;;7.82;5.90;;;-1.40;99.90;;;;;;5043924;28;20213;-72
2024/01/19 08:32:06;;;;;;;7.50;5.28;;;-1.40;99.90;;;;;;5039818;28;20203;-72
2024/01/19 08:34:33;;;;;;;16.23;5.85;;;-1.20;99.90;;;;;;5036969;27;20309;-73
2024/01/19 08:37:00;;;;;;;7.05;5.65;;;-1.10;99.90;;;;;;5036078;27;20212;-73
2024/01/19 08:39:27;;;;;;;13.13;6.68;;;-1.10;99.90;;;;;;5035366;28;20215;-73
2024/01/19 08:41:53;;;;;;;11.82;5.25;;;-1.00;99.90;;;;;;5043552;28;20208;-73
2024/01/19 08:44:22;;;;;;;7.07;6.45;;;-1.00;99.90;;;;;;5043677;28;20308;-72
2024/01/19 08:46:49;;;;;;;8.10;4.68;;;-1.00;99.90;;;;;;5039307;27;20239;-72
2024/01/19 08:49:16;;;;;;;13.95;4.95;;;-1.00;99.90;;;;;;5038874;28;20348;-73
2024/01/19 08:51:45;;;;;;;6.25;3.90;;;-1.00;99.90;;;;;;5045961;28;20201;-73
2024/01/19 08:54:13;;;;;;;6.00;3.60;;;-1.20;99.90;;;;;;5056185;27;20224;-72
2024/01/19 08:56:40;;;;;;;5.47;4.90;;;;;;;;;;5038077;27;20621;-72
2024/01/19 08:59:07;;;;;;;5.97;5.63;;;-1.10;99.90;;;;;;5038818;27;20664;-72
2024/01/19 09:01:35;;;;;;;6.15;5.30;;;-1.10;99.90;;;;;;5041628;28;20323;-73
2024/01/19 09:04:03;;;;;;;4.40;3.90;;;;;;;;;;5051697;28;20199;-72
2024/01/19 09:06:29;;;;;;;6.63;5.22;;;-1.20;99.90;;;;;;5034296;28;20249;-72
2024/01/19 09:09:01;;;;;;;9.15;5.50;;;;;;;;;;5041251;28;20292;-72
2024/01/19 09:11:28;;;;;;;4.57;4.13;;;0.20;99.90;;;;;;5047163;28;20252;-72
2024/01/19 09:13:55;;;;;;;11.68;5.80;;;;;;;;;;5034760;28;20216;-72
2024/01/19 09:16:21;;;;;;;16.88;4.40;;;-0.80;99.90;;;;;;5048956;28;20621;-72
2024/01/19 09:18:52;;;;;;;5.00;4.47;;;-0.80;99.90;;;;;;5033268;28;20296;-73
2024/01/19 09:21:19;;;;;;;6.78;5.60;;;;;;;;;;5039317;27;20673;-73
2024/01/19 09:23:46;;;;;;;10.48;3.85;;;-0.70;99.90;;;;;;5033749;28;20847;-73
2024/01/19 09:26:19;;;;;;;4.75;3.65;;;-2.60;99.90;;;;;;5035101;28;20296;-73
2024/01/19 09:28:46;;;;;;;6.40;4.90;;;;;;;;;;5032923;28;20206;-73
2024/01/19 09:31:13;;;;;;;4.07;3.78;;;;;;;;;;5034190;28;20229;-73
2024/01/19 09:33:40;;;;;;;6.63;5.00;;;-1.00;99.90;;;;;;5037675;28;20199;-73
2024/01/19 09:36:09;;;;;;;6.18;4.32;;;-0.60;99.90;;;;;;5030368;28;20220;-73
2024/01/19 09:38:37;;;;;;;9.23;6.55;;;-0.70;99.90;;;;;;5032877;27;20290;-73
2024/01/19 09:41:11;;;;;;;10.10;4.55;;;-2.00;99.90;;;;;;5027317;28;20200;-72
2024/01/19 09:43:42;;;;;;;4.40;4.10;;;-0.40;99.90;;;;;;5033826;28;20636;-73
2024/01/19 09:46:17;;;;;;;9.70;3.90;;;-0.50;99.90;;;;;;5034671;28;20205;-73
2024/01/19 09:48:54;;;;;;;10.25;6.65;;;-0.60;99.90;;;;;;5038209;28;20292;-73
2024/01/19 09:51:26;;;;;;;5.00;3.88;;;-0.60;99.90;;;;;;5040359;28;20286;-73
2024/01/19 09:53:59;;;;;;;5.13;3.33;;;-0.50;99.90;;;;;;5052129;28;20808;-73
2024/01/19 09:56:26;;;;;;;5.38;4.43;;;;;;;;;;5045839;28;20258;-72
2024/01/19 09:58:56;;;;;;;14.27;6.93;;;;;;;;;;5045160;28;20235;-73
2024/01/19 10:01:22;;;;;;;7.68;6.88;;;-0.20;99.90;;;;;;5047533;27;20565;-72
2024/01/19 10:03:55;;;;;;;7.80;3.67;;;-0.20;99.90;;;;;;5048250;28;20209;-73
2024/01/19 10:06:24;;;;;;;5.60;4.78;;;-0.10;99.90;;;;;;5050367;28;20603;-73
2024/01/19 10:08:54;;;;;;;9.25;4.18;;;-0.20;99.90;;;;;;5047467;28;20209;-73
2024/01/19 10:11:22;;;;;;;4.13;3.83;;;;;;;;;;5044704;27;20664;-72
2024/01/19 10:13:49;;;;;;;6.22;3.75;;;;;;;;;;5036551;28;20204;-73
2024/01/19 10:16:16;;;;;;;9.00;3.78;;;-0.10;99.90;;;;;;5033786;28;20257;-72
2024/01/19 10:18:43;;;;;;;4.55;4.25;;;-0.10;99.90;;;;;;5038717;28;20749;-73
2024/01/19 10:21:13;;;;;;;5.85;3.65;;;-0.20;99.90;;;;;;5040837;28;20211;-72
2024/01/19 10:23:43;;;;;;;7.90;4.70;;;-0.10;99.90;;;;;;5037581;27;20210;-73
2024/01/19 10:26:14;;;;;;;3.53;2.33;;;-0.10;99.90;;;;;;5037135;27;20201;-72
2024/01/19 10:28:41;;;;;;;6.97;6.38;;;-0.20;99.90;;;;;;5032866;27;20284;-73
2024/01/19 10:31:15;;;;;;;3.60;3.30;;;-0.20;99.90;;;;;;5035034;28;20241;-73
2024/01/19 10:33:52;;;;;;;3.92;3.60;;;-0.20;99.90;;;;;;5031784;27;20575;-72
2024/01/19 10:36:19;;;;;;;5.35;4.85;;;;;;;;;;5033130;28;20637;-73
2024/01/19 10:38:48;;;;;;;4.85;4.05;;;-0.20;99.90;;;;;;5029209;28;20208;-72
2024/01/19 10:41:16;;;;;;;10.13;4.05;;;0.00;99.90;;;;;;5026726;27;20346;-73
2024/01/19 10:43:43;;;;;;;5.03;4.60;;;0.00;99.90;;;;;;5029293;28;20196;-73
2024/01/19 10:46:21;;;;;;;5.38;4.72;;;1.40;99.90;;;;;;5037299;27;20207;-73
2024/01/19 10:48:50;;;;;;;4.97;4.45;;;1.10;99.90;;;;;;5039262;28;20210;-73
2024/01/19 10:51:20;;;;;;;7.07;4.25;;;0.40;99.90;;;;;;5043696;28;20309;-73
2024/01/19 10:53:49;;;;;;;5.32;4.53;;;0.30;99.90;;;;;;5060833;27;20303;-73
2024/01/19 10:56:23;;;;;;;11.45;4.88;;;;;;;;;;5050081;28;20220;-73
2024/01/19 10:58:50;;;;;;;4.38;3.85;;;0.80;99.90;;;;;;5058209;28;20204;-73
2024/01/19 11:01:18;;;;;;;5.75;3.53;;;0.60;99.90;;;;;;5051759;27;20200;-73
2024/01/19 11:03:45;;;;;;;2.45;2.30;;;;;;;;;;5048231;27;20228;-73
2024/01/19 11:06:12;;;;;;;3.67;3.38;;;;;;;;;;5056223;28;20226;-73
2024/01/19 11:08:40;;;;;;;6.03;4.20;;;0.30;99.90;;;;;;5056759;28;20225;-73
2024/01/19 11:11:09;;;;;;;6.75;3.70;;;0.30;99.90;;;;;;5060468;27;20204;-73
2024/01/19 11:13:40;;;;;;;9.88;4.38;;;0.40;99.90;;;;;;5055142;27;20205;-73
2024/01/19 11:16:10;;;;;;;21.23;3.15;;;0.40;99.90;;;;;;5051163;27;20230;-73
2024/01/19 11:18:37;;;;;;;6.80;4.90;;;0.50;99.90;;;;;;5048191;28;20204;-73
2024/01/19 11:21:04;;;;;;;4.15;3.08;;;0.30;99.90;;;;;;5046122;28;20632;-71
2024/01/19 11:23:32;;;;;;;7.65;3.60;;;0.10;99.90;;;;;;5048647;27;20275;-73
2024/01/19 11:26:07;;;;;;;3.88;3.50;;;0.40;99.90;;;;;;5045868;27;20660;-74
2024/01/19 11:28:44;;;;;;;12.90;3.15;;;0.30;99.90;;;;;;5044473;27;20778;-72
2024/01/19 11:31:14;;;;;;;5.47;2.67;;;0.20;99.90;;;;;;5040701;28;20599;-73
2024/01/19 11:33:41;;;;;;;2.67;2.45;;;0.20;99.90;;;;;;5051076;28;20230;-70
2024/01/19 11:36:09;;;;;;;4.28;3.67;;;-0.10;99.90;;;;;;5050564;28;20578;-72
2024/01/19 11:38:43;;;;;;;4.55;4.15;;;-0.20;99.90;;;;;;5051761;28;20203;-71
2024/01/19 11:41:11;;;;;;;7.22;2.33;;;0.10;99.90;;;;;;5039548;28;20197;-71
2024/01/19 11:43:40;;;;;;;8.82;2.95;;;0.30;99.90;;;;;;5063892;27;20208;-72
2024/01/19 11:46:08;;;;;;;4.88;2.97;;;0.20;99.90;;;;;;5043233;27;20202;-72
2024/01/19 11:48:42;;;;;;;2.17;2.08;;;0.10;99.90;;;;;;5052130;28;20212;-73
2024/01/19 11:51:09;;;;;;;2.67;2.47;;;0.10;99.90;;;;;;5057932;28;20209;-73
2024/01/19 11:53:56;;;;;;;1.77;1.67;;;0.20;99.90;;;;;;5043628;27;20205;-74
2024/01/19 11:56:23;;;;;;;4.32;2.85;;;0.20;99.90;;;;;;5035659;28;20570;-73
2024/01/19 11:58:53;;;;;;;3.92;3.63;;;0.10;99.90;;;;;;5061222;28;20208;-74
2024/01/19 12:01:20;;;;;;;6.57;4.32;;;-0.10;99.90;;;;;;5055336;27;20203;-73
2024/01/19 12:03:52;;;;;;;3.85;3.03;;;0.00;99.90;;;;;;5038567;28;20222;-73
2024/01/19 12:06:19;;;;;;;3.00;2.80;;;0.00;99.90;;;;;;5038258;28;20208;-74
2024/01/19 12:09:00;;;;;;;3.65;2.47;;;0.00;99.90;;;;;;5043518;28;20292;-73
2024/01/19 12:11:27;;;;;;;4.60;3.90;;;;;;;;;;5056770;27;20214;-73
2024/01/19 12:13:57;;;;;;;1.75;1.65;;;-0.30;99.90;;;;;;5043145;28;20212;-73
2024/01/19 12:16:24;;;;;;;9.00;4.07;;;-0.10;99.90;;;;;;5044566;28;20225;-73
2024/01/19 12:18:55;;;;;;;6.55;2.85;;;0.20;99.90;;;;;;5054567;27;20721;-73
2024/01/19 12:21:22;;;;;;;3.35;3.13;;;0.20;99.90;;;;;;5041076;28;20643;-74
2024/01/19 12:23:54;;;;;;;2.67;2.08;;;0.40;99.90;;;;;;5047428;28;20296;-74
2024/01/19 12:26:21;;;;;;;2.88;1.30;;;0.00;99.90;;;;;;5049255;27;20550;-73
2024/01/19 12:28:50;;;;;;;6.30;3.78;;;0.00;99.90;;;;;;5047007;28;20211;-73
2024/01/19 12:31:26;;;;;;;4.70;2.20;;;0.00;99.90;;;;;;5046579;27;20210;-73
2024/01/19 12:33:53;;;;;;;3.58;3.28;;;-0.10;99.90;;;;;;5043163;28;20219;-73
2024/01/19 12:36:25;;;;;;;6.13;2.10;;;-0.10;99.90;;;;;;5045665;27;20307;-73
2024/01/19 12:39:05;;;;;;;3.20;2.67;;;0.00;99.90;;;;;;5043067;28;20346;-74
2024/01/19 12:41:33;;;;;;;3.10;1.80;;;-0.20;99.90;;;;;;5048192;28;20677;-73
2024/01/19 12:44:03;;;;;;;3.80;2.55;;;-0.20;99.90;;;;;;5048502;28;20216;-73
2024/01/19 12:46:31;;;;;;;6.70;3.33;;;-0.10;99.90;;;;;;5040881;27;20238;-74
2024/01/19 12:48:59;;;;;;;4.72;2.65;;;-0.10;99.90;;;;;;5048817;28;20318;-73
2024/01/19 12:51:26;;;;;;;3.10;2.60;;;-0.10;99.90;;;;;;5049967;28;20205;-74
2024/01/19 12:53:55;;;;;;;4.88;3.83;;;-0.10;99.90;;;;;;5047213;27;20210;-73
2024/01/19 12:56:25;;;;;;;4.65;3.85;;;0.00;99.90;;;;;;5048163;28;20220;-73
2024/01/19 12:58:52;;;;;;;4.88;3.22;;;-0.10;99.90;;;;;;5039626;28;20637;-74
2024/01/19 13:01:20;;;;;;;5.22;2.90;;;0.00;99.90;;;;;;5037992;28;20211;-74
2024/01/19 13:03:48;;;;;;;5.85;4.15;;;0.10;99.90;;;;;;5054334;27;20224;-74
2024/01/19 13:06:15;;;;;;;4.78;4.05;;;0.20;99.90;;;;;;5045802;28;20274;-74
2024/01/19 13:08:42;;;;;;;3.80;2.78;;;0.20;99.90;;;;;;5042833;28;20231;-74
2024/01/19 13:11:10;;;;;;;4.72;3.15;;;0.30;99.90;;;;;;5038462;28;20635;-74
2024/01/19 13:13:37;;;;;;;2.05;1.45;;;0.20;99.90;;;;;;5041341;28;20203;-74
2024/01/19 13:16:12;;;;;;;3.33;1.98;;;0.00;99.90;;;;;;5039216;28;20225;-73
2024/01/19 13:18:40;;;;;;;2.35;2.13;;;0.00;99.90;;;;;;5042432;27;20214;-74
2024/01/19 13:21:15;;;;;;;4.95;2.80;;;0.00;99.90;;;;;;5039143;28;20205;-74
2024/01/19 13:23:44;;;;;;;1.60;1.50;;;0.00;99.90;;;;;;5036181;28;20212;-73
2024/01/19 13:26:18;;;;;;;3.15;2.00;;;0.00;99.90;;;;;;5043011;28;20205;-74